Martinstown, Missouri
Current Conditions -  °F | °C
As of 1:30 AM on Monday 22 Dec 2014 (Local Time) from KTVK Reporting Station
Overcast Overcast  
Wind Chill: 33°   Ceiling: 3400
Heat Index: 39°   Visibility: 10mi
Dew Point: 39°   Wind: 9mph
Humidity: 100%   Direction: 140°SE
Pressure: 29.77"   Gusts: NA
Location:  40.4961°N, 92.9907°W
Report Text: KTVK 220730Z AUTO 14008KT 10SM SCT026 OVC034 04/04 A2977 RMK AO2
Loading
Personal Weather Stations






























Interactive Weather Map New forecast layout! Learn more

10-Day Weather Forecast

Advertisements
Track Severe Weather on mobile